Airfield :







YOU CAN JOIN US ON...

 
LOGIN :

Register | Disclaimer

   EN    FR    IT 

 









Legend :    VFR   Marginal VFR   IFR   Intensive IFR   Very Intensive IFR
Visi :
Ceiling :
>= 8 km
>= 3000ft
5 to 8 km
1000 to 3000 ft
1500m to 5 km
500 to 1000 ft
800 to 1500m
200 to 500 ft
< 800m
< 200 ft
Symbols :   Thunderstorms  Fog  Heavy snow  Heavy precipitations  Wind > 20 kt






- Airport Elevation : 489 ft


KHUL - Houlton International

CURRENT METAR :
  • 221553Z AUTO 13009G18KT 10SM CLR 10/04 A3024 RMK AO2 SLP245 T01000044

EXPIRED METARs :
  • 221453Z AUTO 13007KT 10SM CLR 07/04 A3025 RMK AO2 SLP248 T00720039 53003
  • 221353Z AUTO 11009KT 10SM CLR 06/03 A3024 RMK AO2 SLP244 T00560033

TAF KHUL
Valid from the 22 at 12:00 until the 23 at 12:00 UTC


221120Z 2212/2312 09003KT P6SM BKN250
FM221800 11010G18KT P6SM BKN150
FM230600 09012KT P6SM VCSH BKN020 OVC035
FM230900 09012KT 4SM -RA BR OVC008



MET'MAP, your aeronautical weather chart ! - Copyright ORBIFLY December 2007 - Disclaimer

ORBIFLY MET'MAP TEAM :

Programming & Development : Alexandra Zaïnal
Concept & Development : Baudouin d'Aumeries
Co-Development & Prog : Marc-Olivier Méhu
Technical & hardware support : Manuel Goepfert

Contact : metmap@orbifly.com




SOURCES & CREDITS :

   NOAA